Terminal Aerodrome Forecast
Issued by NWS Albany, NY

Home | Current Version | Previous Version | Text Only | Print | Product List | Glossary On
Versions: 1 2 3 4 5 6 7 8 9 10 11 12 13 14 15 16 17 18 19 20 21 22 23
673
FTUS41 KALY 271720
TAFALB
TAF
KALB 271720Z 2718/2818 15005KT 6SM BR VCSH SCT009 OVC015
      TEMPO 2718/2722 5SM -SHRA BR BKN009 OVC012
     FM280200 16004KT 5SM BR OVC008
     FM280400 VRB03KT 1 1/2SM BR OVC003
     FM281300 VRB03KT P6SM VCSH SCT003 OVC008 PROB30 2814/2818 2SM
      -RA OVC005=

USA.gov is the U.S. government's official web portal to all federal, state and local government web resources and services.